Time;durP1;ratioP1;P1;durP2;ratioP2;P2;SDS_P1;SDS_P2;PMS_P1;PMS_P2;Temp;Humidity;BMP_temperature;BMP_pressure;BME280_temperature;BME280_humidity;BME280_pressure;Samples;Min_cycle;Max_cycle;Signal;HPM_P1;HPM_P2
2024/03/25 00:02:07;;;;;;;6.80;2.83;;;9.90;89.40;;;;;;5059272;28;20215;-80
2024/03/25 00:04:33;;;;;;;5.20;2.70;;;9.90;89.70;;;;;;5045112;28;20207;-80
2024/03/25 00:07:50;;;;;;;5.70;2.97;;;9.80;89.20;;;;;;5071456;28;20726;-79
2024/03/25 00:11:40;;;;;;;5.43;2.50;;;9.70;88.80;;;;;;5084305;28;20541;-80
2024/03/25 00:14:48;;;;;;;5.23;2.73;;;9.50;89.40;;;;;;5094449;28;20221;-81
2024/03/25 00:17:14;;;;;;;4.03;2.20;;;9.40;89.80;;;;;;5067917;28;20525;-80
2024/03/25 00:19:42;;;;;;;3.73;2.57;;;9.30;90.00;;;;;;5072284;28;20202;-79
2024/03/25 00:22:08;;;;;;;4.17;2.90;;;9.20;90.00;;;;;;5079285;28;20198;-79
2024/03/25 00:24:35;;;;;;;5.37;2.63;;;9.10;90.10;;;;;;5081283;28;20223;-79
2024/03/25 00:27:02;;;;;;;5.50;2.53;;;9.10;90.20;;;;;;5059790;28;20214;-79
2024/03/25 00:29:28;;;;;;;5.67;2.30;;;9.00;90.30;;;;;;5079333;28;20200;-79
2024/03/25 00:31:55;;;;;;;4.93;2.70;;;9.00;90.50;;;;;;5065146;28;20244;-79
2024/03/25 00:34:21;;;;;;;5.33;2.87;;;9.00;90.60;;;;;;5075469;28;20234;-79
2024/03/25 00:36:48;;;;;;;5.00;2.50;;;9.00;90.60;;;;;;5041974;28;20199;-80
2024/03/25 00:39:14;;;;;;;4.70;2.53;;;9.00;90.70;;;;;;5082087;28;20204;-79
2024/03/25 00:41:41;;;;;;;4.27;2.50;;;9.00;90.80;;;;;;5071375;28;20870;-79
2024/03/25 00:44:07;;;;;;;5.37;2.87;;;9.00;90.80;;;;;;5068573;28;20654;-80
2024/03/25 00:46:33;;;;;;;5.50;2.93;;;9.00;90.80;;;;;;5069269;28;20195;-80
2024/03/25 00:49:00;;;;;;;3.80;2.70;;;9.00;90.90;;;;;;5075693;28;20204;-80
2024/03/25 00:51:26;;;;;;;5.37;2.93;;;8.90;91.00;;;;;;5048203;28;20208;-80
2024/03/25 00:53:52;;;;;;;6.97;2.87;;;8.90;91.30;;;;;;5070280;28;20203;-81
2024/03/25 00:56:19;;;;;;;3.87;2.53;;;9.00;91.00;;;;;;5069782;28;20207;-79
2024/03/25 00:58:46;;;;;;;5.33;2.53;;;8.90;91.10;;;;;;5087056;28;20222;-79
2024/03/25 01:01:12;;;;;;;2.97;2.37;;;8.90;91.10;;;;;;5080210;28;20520;-79
2024/03/25 01:03:38;;;;;;;4.70;2.50;;;8.90;91.10;;;;;;5080641;28;20202;-80
2024/03/25 01:06:05;;;;;;;4.60;3.00;;;8.90;91.10;;;;;;5064473;28;20245;-79
2024/03/25 01:08:31;;;;;;;6.43;2.63;;;8.90;91.20;;;;;;5065576;28;20292;-79
2024/03/25 01:10:58;;;;;;;4.13;2.60;;;8.90;91.20;;;;;;5067975;28;20201;-79
2024/03/25 01:13:24;;;;;;;5.40;2.53;;;8.90;91.20;;;;;;5043185;28;20676;-79
2024/03/25 01:15:50;;;;;;;13.13;3.43;;;8.80;91.10;;;;;;5092189;28;20630;-79
2024/03/25 01:18:16;;;;;;;4.77;3.10;;;8.80;91.10;;;;;;5079556;28;20207;-80
2024/03/25 01:20:42;;;;;;;4.67;2.43;;;8.70;91.20;;;;;;5077605;28;20206;-79
2024/03/25 01:23:09;;;;;;;7.13;2.70;;;8.70;91.30;;;;;;5071425;28;20572;-79
2024/03/25 01:25:35;;;;;;;8.07;2.70;;;8.70;91.30;;;;;;5064564;28;20210;-79
2024/03/25 01:28:01;;;;;;;8.37;3.20;;;8.70;91.40;;;;;;5077418;28;20203;-79
2024/03/25 01:30:28;;;;;;;7.90;3.27;;;8.60;91.40;;;;;;5049534;28;20583;-79
2024/03/25 01:32:54;;;;;;;4.97;2.90;;;8.60;91.30;;;;;;5076374;28;20204;-79
2024/03/25 01:35:21;;;;;;;4.07;3.00;;;8.60;91.30;;;;;;5057981;28;20559;-80
2024/03/25 01:37:48;;;;;;;4.83;2.77;;;8.60;91.30;;;;;;5057465;28;20210;-79
2024/03/25 01:40:15;;;;;;;5.83;4.07;;;8.60;91.40;;;;;;5081207;28;20216;-79
2024/03/25 01:42:41;;;;;;;4.13;2.97;;;8.50;91.30;;;;;;5072129;28;20626;-79
2024/03/25 01:45:10;;;;;;;3.60;2.80;;;8.50;91.40;;;;;;5090978;28;20204;-80
2024/03/25 01:47:38;;;;;;;3.60;2.60;;;8.50;91.40;;;;;;5086642;28;20208;-79
2024/03/25 01:50:06;;;;;;;4.30;3.03;;;8.40;91.50;;;;;;5067951;28;20256;-79
2024/03/25 01:52:33;;;;;;;4.20;2.93;;;8.40;91.60;;;;;;5082327;28;20281;-79
2024/03/25 01:55:00;;;;;;;4.97;2.67;;;8.40;91.70;;;;;;5063967;28;20547;-79
2024/03/25 01:57:26;;;;;;;4.47;3.03;;;8.40;91.70;;;;;;5068236;28;20270;-80
2024/03/25 01:59:53;;;;;;;5.73;2.90;;;8.40;91.70;;;;;;5082067;28;20219;-83
2024/03/25 02:02:22;;;;;;;4.83;3.30;;;8.40;91.70;;;;;;5076143;28;20202;-80
2024/03/25 02:04:49;;;;;;;3.20;2.53;;;8.40;91.70;;;;;;5062200;28;20730;-79
2024/03/25 02:07:17;;;;;;;5.93;2.90;;;8.40;91.70;;;;;;5079141;28;20577;-79
2024/03/25 02:09:44;;;;;;;6.73;2.70;;;8.40;91.70;;;;;;5061255;28;20218;-81
2024/03/25 02:12:11;;;;;;;5.43;3.00;;;8.30;91.70;;;;;;5048335;28;20227;-79
2024/03/25 02:15:18;;;;;;;6.27;3.50;;;8.30;91.70;;;;;;5079896;28;20197;-79
2024/03/25 02:18:30;;;;;;;4.90;3.00;;;8.30;91.80;;;;;;5094461;28;20509;-81
2024/03/25 02:22:08;;;;;;;4.63;3.00;;;8.30;91.90;;;;;;5064648;28;20208;-80
2024/03/25 02:24:56;;;;;;;7.33;3.13;;;8.30;91.70;;;;;;5086047;28;20220;-80
2024/03/25 02:27:39;;;;;;;4.70;3.30;;;8.20;91.70;;;;;;5056170;28;20245;-80
2024/03/25 02:30:22;;;;;;;5.23;3.10;;;8.20;91.70;;;;;;5084697;28;20222;-79
2024/03/25 02:33:03;;;;;;;7.03;3.53;;;8.20;91.90;;;;;;5064115;28;20246;-80
2024/03/25 02:36:05;;;;;;;7.03;3.67;;;8.10;92.00;;;;;;5043403;28;20360;-80
2024/03/25 02:38:47;;;;;;;6.77;3.57;;;8.10;92.20;;;;;;5056577;28;20206;-79
2024/03/25 02:41:13;;;;;;;3.73;3.20;;;8.10;92.30;;;;;;5068659;28;20219;-79
2024/03/25 02:43:39;;;;;;;5.57;3.20;;;8.10;92.40;;;;;;5060748;28;20257;-79
2024/03/25 02:46:06;;;;;;;5.90;3.57;;;8.10;92.30;;;;;;5082765;28;20201;-79
2024/03/25 02:48:32;;;;;;;7.53;3.47;;;8.10;92.20;;;;;;5042494;28;20214;-80
2024/03/25 02:50:58;;;;;;;7.90;3.43;;;8.00;92.20;;;;;;5060262;28;20202;-79
2024/03/25 02:53:24;;;;;;;4.47;3.23;;;8.00;92.30;;;;;;5061113;28;20551;-79
2024/03/25 02:55:51;;;;;;;4.47;3.43;;;8.00;92.40;;;;;;5025556;28;20201;-79
2024/03/25 02:58:17;;;;;;;10.13;3.00;;;7.90;92.40;;;;;;5043137;28;20194;-79
2024/03/25 03:00:43;;;;;;;6.60;3.20;;;7.90;92.40;;;;;;5059656;28;20198;-80
2024/03/25 03:03:09;;;;;;;7.90;3.67;;;7.90;92.30;;;;;;5041521;28;20213;-80
2024/03/25 03:05:35;;;;;;;7.60;3.20;;;7.90;92.30;;;;;;5034047;28;20207;-80
2024/03/25 03:08:01;;;;;;;3.53;3.20;;;7.80;92.20;;;;;;5059470;28;20195;-78
2024/03/25 03:10:28;;;;;;;7.40;3.87;;;7.70;92.30;;;;;;5062465;28;20637;-79
2024/03/25 03:12:54;;;;;;;3.53;3.07;;;7.70;92.50;;;;;;5042997;28;20230;-80
2024/03/25 03:15:20;;;;;;;7.50;3.20;;;7.60;92.60;;;;;;5044423;28;20192;-79
2024/03/25 03:17:46;;;;;;;6.93;2.63;;;7.60;92.50;;;;;;5058591;28;20196;-80
2024/03/25 03:20:12;;;;;;;4.53;3.30;;;7.60;92.40;;;;;;5054674;28;20209;-78
2024/03/25 03:22:39;;;;;;;8.47;4.23;;;7.50;92.30;;;;;;5056979;28;20670;-80
2024/03/25 03:25:05;;;;;;;4.13;3.47;;;7.50;92.30;;;;;;5044308;28;20206;-78
2024/03/25 03:27:31;;;;;;;3.93;3.30;;;7.50;92.50;;;;;;5055875;28;20268;-79
2024/03/25 03:29:58;;;;;;;4.67;3.33;;;7.50;92.50;;;;;;5055790;28;20198;-79
2024/03/25 03:32:25;;;;;;;4.87;3.20;;;7.50;92.60;;;;;;5055403;28;20257;-81
2024/03/25 03:34:55;;;;;;;6.43;3.17;;;7.50;92.60;;;;;;5044511;28;20209;-80
2024/03/25 03:37:22;;;;;;;4.23;3.20;;;7.50;92.70;;;;;;5045203;28;20209;-81
2024/03/25 03:39:48;;;;;;;5.10;3.90;;;7.50;92.50;;;;;;5062803;28;20198;-80
2024/03/25 03:42:14;;;;;;;4.53;3.97;;;7.40;92.30;;;;;;5073101;28;20525;-80
2024/03/25 03:44:41;;;;;;;4.93;4.43;;;7.30;92.30;;;;;;5062250;28;20198;-79
2024/03/25 03:47:07;;;;;;;4.70;3.97;;;7.30;92.40;;;;;;5043362;28;20215;-79
2024/03/25 03:49:33;;;;;;;4.60;3.53;;;7.20;92.40;;;;;;5077556;28;20195;-80
2024/03/25 03:51:59;;;;;;;5.30;3.97;;;7.20;92.50;;;;;;5062867;28;20217;-79
2024/03/25 03:54:25;;;;;;;8.47;4.00;;;7.10;92.60;;;;;;5044889;28;20221;-81
2024/03/25 03:56:51;;;;;;;5.53;3.90;;;7.10;92.50;;;;;;5055517;28;20266;-81
2024/03/25 03:59:18;;;;;;;6.43;4.33;;;7.00;92.50;;;;;;5070715;28;20206;-81
2024/03/25 04:01:44;;;;;;;6.00;4.03;;;7.00;92.70;;;;;;5047048;28;20210;-80
2024/03/25 04:04:11;;;;;;;5.90;3.90;;;7.00;92.90;;;;;;5041265;28;20260;-79
2024/03/25 04:06:40;;;;;;;5.53;3.77;;;7.00;92.90;;;;;;5071036;28;20209;-79
2024/03/25 04:09:08;;;;;;;7.83;4.27;;;6.90;93.00;;;;;;5064208;28;20240;-80
2024/03/25 04:11:36;;;;;;;5.90;4.03;;;6.90;93.10;;;;;;5044711;28;20208;-80
2024/03/25 04:14:02;;;;;;;5.07;3.77;;;6.90;93.20;;;;;;5047028;28;20683;-79
2024/03/25 04:16:30;;;;;;;8.87;3.67;;;6.90;93.20;;;;;;5083389;28;20215;-79
2024/03/25 04:18:57;;;;;;;7.93;3.87;;;6.90;93.30;;;;;;5065097;28;20213;-80
2024/03/25 04:21:24;;;;;;;4.87;3.47;;;6.90;93.20;;;;;;5076408;28;20201;-80
2024/03/25 04:23:50;;;;;;;6.30;3.60;;;6.90;93.20;;;;;;5073566;28;20645;-80
2024/03/25 04:26:16;;;;;;;5.20;3.80;;;6.80;93.20;;;;;;5078807;28;20207;-80
2024/03/25 04:28:43;;;;;;;8.23;4.20;;;6.90;93.20;;;;;;5066626;28;20674;-80
2024/03/25 04:31:09;;;;;;;5.27;4.13;;;6.90;93.20;;;;;;5043546;28;20343;-80
2024/03/25 04:33:35;;;;;;;7.63;4.40;;;6.90;93.20;;;;;;5080277;28;20233;-80
2024/03/25 04:36:01;;;;;;;5.80;4.00;;;6.90;93.20;;;;;;5076077;28;20547;-80
2024/03/25 04:38:27;;;;;;;4.57;3.73;;;6.90;93.10;;;;;;5093071;28;20504;-80
2024/03/25 04:40:56;;;;;;;6.20;3.83;;;6.90;93.10;;;;;;5065584;28;20284;-79
2024/03/25 04:43:22;;;;;;;6.83;3.90;;;6.90;93.10;;;;;;5072711;28;20654;-80
2024/03/25 04:45:49;;;;;;;6.53;3.93;;;6.80;93.10;;;;;;5076617;28;20194;-79
2024/03/25 04:48:15;;;;;;;12.60;3.83;;;6.80;93.10;;;;;;5070606;28;20228;-79
2024/03/25 04:50:41;;;;;;;7.57;3.77;;;6.80;93.10;;;;;;5068428;28;20202;-80
2024/03/25 04:53:07;;;;;;;5.60;4.03;;;6.80;93.00;;;;;;5047888;28;20551;-80
2024/03/25 04:55:34;;;;;;;4.23;3.13;;;6.80;93.30;;;;;;5062621;28;20190;-79
2024/03/25 04:58:00;;;;;;;5.63;4.03;;;6.70;93.00;;;;;;5075217;28;20193;-80
2024/03/25 05:00:26;;;;;;;6.73;4.03;;;6.70;93.10;;;;;;5064476;28;20653;-81
2024/03/25 05:02:52;;;;;;;7.67;3.87;;;6.70;93.20;;;;;;5064689;28;20206;-80
2024/03/25 05:05:18;;;;;;;4.43;3.90;;;6.70;93.20;;;;;;5060316;28;20205;-81
2024/03/25 05:07:44;;;;;;;7.13;4.53;;;6.70;93.30;;;;;;5069251;28;20199;-80
2024/03/25 05:10:11;;;;;;;3.90;3.60;;;6.70;93.20;;;;;;5075393;28;20206;-80
2024/03/25 05:12:38;;;;;;;8.47;4.33;;;6.70;93.20;;;;;;5064600;28;20661;-80
2024/03/25 05:15:05;;;;;;;9.73;4.50;;;6.60;93.00;;;;;;5064924;28;20242;-80
2024/03/25 05:17:32;;;;;;;6.43;4.80;;;6.60;93.10;;;;;;5068940;28;20613;-80
2024/03/25 05:19:58;;;;;;;9.33;4.53;;;6.60;93.30;;;;;;5095702;28;20193;-79
2024/03/25 05:22:24;;;;;;;6.87;4.40;;;6.60;93.50;;;;;;5074669;28;20529;-81
2024/03/25 05:24:50;;;;;;;5.73;4.07;;;6.60;93.50;;;;;;5077255;28;20220;-80
2024/03/25 05:27:16;;;;;;;4.43;3.33;;;6.60;93.50;;;;;;5086194;28;20250;-80
2024/03/25 05:29:42;;;;;;;7.30;4.47;;;6.60;93.50;;;;;;5088396;28;20266;-80
2024/03/25 05:32:08;;;;;;;8.67;4.23;;;6.60;93.40;;;;;;5087419;28;20678;-81
2024/03/25 05:34:36;;;;;;;7.43;4.83;;;6.60;93.40;;;;;;5053241;28;20210;-81
2024/03/25 05:37:02;;;;;;;8.97;4.40;;;6.60;93.50;;;;;;5057629;28;20515;-80
2024/03/25 05:39:28;;;;;;;9.00;4.67;;;6.70;93.70;;;;;;5070131;28;20205;-80
2024/03/25 05:41:54;;;;;;;7.33;4.50;;;6.80;93.80;;;;;;5069298;28;20201;-80
2024/03/25 05:44:21;;;;;;;5.57;4.80;;;7.00;93.90;;;;;;5074679;28;20263;-80
2024/03/25 05:46:47;;;;;;;5.77;4.23;;;7.10;93.70;;;;;;5059239;28;20207;-79
2024/03/25 05:49:13;;;;;;;8.43;4.93;;;7.20;93.60;;;;;;5051067;28;20197;-79
2024/03/25 05:51:39;;;;;;;7.67;5.20;;;7.30;93.60;;;;;;5077217;28;20633;-80
2024/03/25 05:54:05;;;;;;;9.00;5.50;;;7.40;93.70;;;;;;5059174;28;20218;-81
2024/03/25 05:56:31;;;;;;;11.00;6.40;;;7.50;93.80;;;;;;5050694;28;20242;-79
2024/03/25 05:58:58;;;;;;;12.53;5.83;;;7.60;94.00;;;;;;5057293;28;20212;-80
2024/03/25 06:01:25;;;;;;;11.33;5.60;;;7.90;94.00;;;;;;5078967;28;20193;-79
2024/03/25 06:03:51;;;;;;;7.63;5.37;;;8.10;93.60;;;;;;5044125;28;20273;-79
2024/03/25 06:06:18;;;;;;;9.43;5.07;;;8.20;93.40;;;;;;5082544;28;20521;-80
2024/03/25 06:08:44;;;;;;;7.23;5.20;;;8.30;93.30;;;;;;5066642;28;20208;-79
2024/03/25 06:11:12;;;;;;;7.43;5.60;;;8.50;93.30;;;;;;5087798;28;20222;-81
2024/03/25 06:13:38;;;;;;;7.10;5.10;;;8.60;92.80;;;;;;5063570;28;20237;-80
2024/03/25 06:16:05;;;;;;;8.90;4.80;;;8.80;92.70;;;;;;5071838;28;20261;-80
2024/03/25 06:18:31;;;;;;;10.43;5.30;;;9.10;92.70;;;;;;5060599;28;20514;-79
2024/03/25 06:20:57;;;;;;;9.03;4.77;;;9.60;91.60;;;;;;5064992;28;20207;-79
2024/03/25 06:23:28;;;;;;;8.00;5.23;;;10.10;90.40;;;;;;5060506;28;20209;-80
2024/03/25 06:25:55;;;;;;;9.20;4.57;;;10.40;89.50;;;;;;5050014;28;20208;-80
2024/03/25 06:28:22;;;;;;;8.37;4.20;;;10.90;87.70;;;;;;5056673;28;20216;-81
2024/03/25 06:36:20;;;;;;;11.03;3.83;;;12.40;81.20;;;;;;5096582;28;20537;-80
2024/03/25 06:38:46;;;;;;;6.27;4.33;;;12.90;79.30;;;;;;5070655;28;20209;-81
2024/03/25 06:41:12;;;;;;;7.87;4.10;;;13.20;77.70;;;;;;5052957;28;20208;-80
2024/03/25 06:43:38;;;;;;;6.07;3.67;;;13.30;77.10;;;;;;5074546;28;20207;-80
2024/03/25 06:46:06;;;;;;;4.30;3.83;;;13.20;77.00;;;;;;5068477;28;20200;-80
2024/03/25 06:48:34;;;;;;;4.90;3.57;;;13.10;77.10;;;;;;5067907;28;20213;-80
2024/03/25 06:51:02;;;;;;;7.03;4.13;;;13.00;76.90;;;;;;5066137;28;20238;-80
2024/03/25 06:53:29;;;;;;;6.77;3.77;;;12.90;77.50;;;;;;5079665;28;20240;-80
2024/03/25 06:55:59;;;;;;;4.17;3.47;;;12.70;78.40;;;;;;5079466;28;20507;-80
2024/03/25 06:58:27;;;;;;;5.13;3.33;;;12.50;78.70;;;;;;5061132;28;20207;-81
2024/03/25 07:00:55;;;;;;;10.13;4.20;;;12.30;79.20;;;;;;5078582;28;20200;-80
2024/03/25 07:03:22;;;;;;;6.03;3.87;;;12.20;79.90;;;;;;5088314;28;20203;-80
2024/03/25 07:05:52;;;;;;;4.97;3.60;;;12.10;80.40;;;;;;5074595;28;20201;-79
2024/03/25 07:08:21;;;;;;;7.87;4.00;;;12.00;80.80;;;;;;5079261;28;20280;-80
2024/03/25 07:10:47;;;;;;;4.70;4.03;;;12.00;81.30;;;;;;5059894;28;20230;-81
2024/03/25 07:13:14;;;;;;;6.10;3.90;;;11.90;80.90;;;;;;5079435;28;20218;-80
2024/03/25 07:15:40;;;;;;;5.17;4.67;;;11.90;81.30;;;;;;5074828;28;20212;-79
2024/03/25 07:18:07;;;;;;;4.60;3.90;;;11.80;81.30;;;;;;5079579;28;20201;-79
2024/03/25 07:20:33;;;;;;;6.30;4.00;;;11.80;82.10;;;;;;5079849;28;20203;-80
2024/03/25 07:22:59;;;;;;;6.60;4.30;;;11.90;82.80;;;;;;5070550;28;20212;-81
2024/03/25 07:25:26;;;;;;;5.23;3.93;;;12.00;83.00;;;;;;5064626;28;20204;-80
2024/03/25 07:27:52;;;;;;;12.53;5.43;;;12.00;82.50;;;;;;5074842;28;20207;-79
2024/03/25 07:30:19;;;;;;;6.47;4.23;;;12.00;82.40;;;;;;5065560;28;20197;-80
2024/03/25 07:32:45;;;;;;;10.73;5.13;;;12.00;82.80;;;;;;5072529;28;20243;-80
2024/03/25 07:35:11;;;;;;;12.87;5.07;;;12.10;83.30;;;;;;5058763;28;20675;-79
2024/03/25 07:37:38;;;;;;;11.37;4.90;;;12.10;83.60;;;;;;5058909;28;20216;-80
2024/03/25 07:40:09;;;;;;;6.80;4.97;;;12.20;84.00;;;;;;5038753;28;20202;-79
2024/03/25 07:42:35;;;;;;;9.50;4.50;;;12.40;84.50;;;;;;5054034;28;20226;-81
2024/03/25 07:45:02;;;;;;;7.30;5.10;;;12.60;84.60;;;;;;5032611;28;20213;-82
2024/03/25 07:47:28;;;;;;;4.93;4.27;;;12.80;84.60;;;;;;5059918;28;20207;-79
2024/03/25 07:49:54;;;;;;;8.23;4.40;;;12.90;84.40;;;;;;5058957;28;20213;-79
2024/03/25 07:52:20;;;;;;;5.97;4.87;;;13.20;84.20;;;;;;5042548;28;20719;-80
2024/03/25 07:54:47;;;;;;;7.97;4.37;;;13.40;83.90;;;;;;5043143;28;20197;-79
2024/03/25 07:57:13;;;;;;;9.30;5.13;;;13.60;83.00;;;;;;5072399;28;20198;-79
2024/03/25 07:59:39;;;;;;;9.43;4.60;;;13.70;82.00;;;;;;5059101;28;20273;-79
2024/03/25 08:02:05;;;;;;;6.20;4.23;;;13.80;81.30;;;;;;5059177;28;20205;-80
2024/03/25 08:04:32;;;;;;;5.77;4.00;;;13.90;81.60;;;;;;5059342;28;20205;-80
2024/03/25 08:06:59;;;;;;;8.00;4.97;;;14.10;81.90;;;;;;5042898;28;20208;-80
2024/03/25 08:09:25;;;;;;;6.20;4.40;;;14.30;81.50;;;;;;5046199;28;20211;-80
2024/03/25 08:11:51;;;;;;;8.10;4.90;;;14.50;80.10;;;;;;5042706;28;20194;-82
2024/03/25 08:14:17;;;;;;;5.33;4.37;;;14.60;79.20;;;;;;5059096;28;20370;-79
2024/03/25 08:16:43;;;;;;;6.73;4.67;;;14.70;78.80;;;;;;5058452;28;20205;-79
2024/03/25 08:19:09;;;;;;;6.00;4.80;;;14.70;78.50;;;;;;5059012;28;20541;-80
2024/03/25 08:21:36;;;;;;;6.20;3.80;;;14.90;78.70;;;;;;5054470;28;20206;-79
2024/03/25 08:24:02;;;;;;;6.10;4.23;;;15.10;78.50;;;;;;5041790;28;20210;-80
2024/03/25 08:26:28;;;;;;;6.53;4.17;;;15.30;77.80;;;;;;5044489;28;20198;-80
2024/03/25 08:28:54;;;;;;;4.53;3.77;;;15.40;77.10;;;;;;5069635;28;20254;-80
2024/03/25 08:31:20;;;;;;;4.80;3.80;;;15.60;75.90;;;;;;5049837;28;20232;-80
2024/03/25 08:33:46;;;;;;;5.20;3.47;;;15.70;75.50;;;;;;5082477;28;20221;-81
2024/03/25 08:36:12;;;;;;;6.37;3.97;;;15.80;74.50;;;;;;5057150;28;20208;-80
2024/03/25 08:38:39;;;;;;;5.37;3.57;;;15.90;74.50;;;;;;5073690;28;20650;-80
2024/03/25 08:41:06;;;;;;;5.43;4.10;;;15.90;74.60;;;;;;5056855;28;20202;-79
2024/03/25 08:43:33;;;;;;;5.57;3.73;;;16.10;74.30;;;;;;5065651;28;20535;-80
2024/03/25 08:45:59;;;;;;;4.87;3.40;;;16.20;73.50;;;;;;5065106;28;20231;-80
2024/03/25 08:48:25;;;;;;;6.23;3.83;;;16.40;72.30;;;;;;5071388;28;20208;-80
2024/03/25 08:50:51;;;;;;;10.67;3.97;;;16.50;72.10;;;;;;5069539;28;20197;-80
2024/03/25 08:53:17;;;;;;;5.00;3.60;;;16.70;71.70;;;;;;5053391;28;20278;-79
2024/03/25 08:55:47;;;;;;;10.00;3.17;;;16.80;71.80;;;;;;5046190;28;20529;-79
2024/03/25 08:58:14;;;;;;;4.27;3.07;;;16.90;71.60;;;;;;5041308;28;20199;-81
2024/03/25 09:00:41;;;;;;;5.13;3.20;;;17.10;71.50;;;;;;5095443;28;20304;-80
2024/03/25 09:03:08;;;;;;;4.33;2.90;;;17.20;70.50;;;;;;5061473;28;20218;-80
2024/03/25 09:05:35;;;;;;;3.90;2.97;;;17.40;69.20;;;;;;5062986;28;20207;-81
2024/03/25 09:08:01;;;;;;;3.83;3.20;;;17.50;68.40;;;;;;5060750;28;20262;-80
2024/03/25 09:13:13;;;;;;;6.07;2.53;;;17.60;66.90;;;;;;5077996;28;20229;-81
2024/03/25 09:15:39;;;;;;;3.90;2.70;;;17.70;65.00;;;;;;5049440;28;20213;-81
2024/03/25 09:18:06;;;;;;;5.50;3.50;;;17.60;63.90;;;;;;5073631;28;20203;-81
2024/03/25 09:20:32;;;;;;;4.40;2.93;;;17.60;65.20;;;;;;5105925;28;20210;-80
2024/03/25 09:22:58;;;;;;;5.33;2.90;;;17.60;65.60;;;;;;5062543;28;20692;-80
2024/03/25 09:25:24;;;;;;;3.57;2.53;;;17.70;65.30;;;;;;5095126;28;20210;-80
2024/03/25 09:27:51;;;;;;;4.77;2.67;;;17.70;64.80;;;;;;5053992;28;20199;-80
2024/03/25 09:30:20;;;;;;;5.43;2.27;;;17.80;64.60;;;;;;5072551;28;20284;-82
2024/03/25 09:32:47;;;;;;;8.67;2.43;;;17.90;64.20;;;;;;5081064;28;20246;-80
2024/03/25 09:35:15;;;;;;;6.23;2.70;;;18.00;61.90;;;;;;5086426;28;20195;-82
2024/03/25 09:37:42;;;;;;;4.47;3.13;;;17.90;60.30;;;;;;5080215;28;20628;-80
2024/03/25 09:40:09;;;;;;;5.07;2.73;;;17.90;61.70;;;;;;5105987;28;20196;-80
2024/03/25 09:42:48;;;;;;;2.93;2.33;;;17.90;62.70;;;;;;5088346;28;20291;-81
2024/03/25 09:45:18;;;;;;;3.33;2.17;;;18.00;62.40;;;;;;5081158;28;20295;-80
2024/03/25 09:48:21;;;;;;;4.07;3.00;;;18.00;60.80;;;;;;5093766;28;20564;-80
2024/03/25 09:50:50;;;;;;;3.97;2.40;;;18.10;61.40;;;;;;5060665;28;20340;-80
2024/03/25 09:53:16;;;;;;;3.93;2.40;;;18.10;60.00;;;;;;5076556;28;20221;-80
2024/03/25 09:55:42;;;;;;;4.40;2.70;;;18.20;60.80;;;;;;5064013;28;20248;-81
2024/03/25 09:58:09;;;;;;;5.63;2.93;;;18.30;60.50;;;;;;5065753;28;20266;-79
2024/03/25 10:00:36;;;;;;;4.03;2.20;;;18.40;59.30;;;;;;5057294;28;20854;-80
2024/03/25 10:03:02;;;;;;;4.73;2.87;;;18.40;59.40;;;;;;5094752;28;20209;-80
2024/03/25 10:05:29;;;;;;;3.27;2.40;;;18.40;60.10;;;;;;5093670;28;20269;-80
2024/03/25 10:07:55;;;;;;;3.37;2.90;;;18.50;59.60;;;;;;5090916;28;20219;-79
2024/03/25 10:10:21;;;;;;;4.67;3.00;;;18.50;59.80;;;;;;5080175;28;20228;-81
2024/03/25 10:12:48;;;;;;;6.27;3.57;;;18.60;59.90;;;;;;5076952;28;20224;-80
2024/03/25 10:15:17;;;;;;;5.43;2.90;;;18.70;60.60;;;;;;5091915;28;20265;-81
2024/03/25 10:17:44;;;;;;;4.03;3.20;;;18.80;60.70;;;;;;5067183;28;20645;-80
2024/03/25 10:20:14;;;;;;;7.57;3.57;;;18.80;59.90;;;;;;5079933;28;20205;-81
2024/03/25 10:22:41;;;;;;;5.87;3.10;;;18.80;59.80;;;;;;5072507;28;20226;-82
2024/03/25 10:25:18;;;;;;;3.53;3.10;;;18.80;59.50;;;;;;5078525;28;20220;-79
2024/03/25 10:28:01;;;;;;;6.90;4.00;;;18.80;59.20;;;;;;5055244;28;20214;-81
2024/03/25 10:30:29;;;;;;;5.40;3.13;;;18.80;59.80;;;;;;5066209;28;20228;-81
2024/03/25 10:33:06;;;;;;;5.63;3.57;;;18.80;60.00;;;;;;5075282;28;20241;-82
2024/03/25 10:35:37;;;;;;;4.93;3.10;;;18.90;60.90;;;;;;5070427;28;20211;-81
2024/03/25 10:38:05;;;;;;;10.23;3.33;;;18.90;61.50;;;;;;5070148;28;20195;-80
2024/03/25 10:40:33;;;;;;;4.83;3.40;;;19.00;61.90;;;;;;5088926;28;20240;-82
2024/03/25 10:43:08;;;;;;;3.57;2.57;;;19.00;61.10;;;;;;5071903;28;20223;-80
2024/03/25 10:45:47;;;;;;;2.60;2.40;;;19.10;60.80;;;;;;5080172;28;20227;-80
2024/03/25 10:48:16;;;;;;;3.07;2.67;;;19.20;60.00;;;;;;5092695;28;20895;-80
2024/03/25 10:50:47;;;;;;;3.73;2.50;;;19.20;59.00;;;;;;5083816;28;20629;-80
2024/03/25 10:53:17;;;;;;;4.70;2.90;;;19.20;59.20;;;;;;5080016;28;20218;-81
2024/03/25 10:55:47;;;;;;;3.40;2.50;;;19.30;59.00;;;;;;5066021;28;20208;-81
2024/03/25 10:58:16;;;;;;;3.30;2.70;;;19.40;58.60;;;;;;5078962;28;20213;-82
2024/03/25 11:00:44;;;;;;;3.07;2.60;;;19.50;58.50;;;;;;5086205;28;20257;-82
2024/03/25 11:03:11;;;;;;;4.00;2.40;;;19.50;57.50;;;;;;5081076;28;20303;-82
2024/03/25 11:05:39;;;;;;;9.20;2.80;;;19.60;55.50;;;;;;5071851;28;20213;-80
2024/03/25 11:08:16;;;;;;;7.40;2.83;;;19.60;56.50;;;;;;5064551;28;20224;-81
2024/03/25 11:10:46;;;;;;;7.30;2.80;;;19.70;57.70;;;;;;5047349;28;20204;-80
2024/03/25 11:13:14;;;;;;;5.10;2.97;;;19.70;57.60;;;;;;5080644;28;20225;-80
2024/03/25 11:15:44;;;;;;;4.03;2.67;;;19.80;56.60;;;;;;5080114;28;20188;-79
2024/03/25 11:18:16;;;;;;;6.20;2.83;;;19.80;56.50;;;;;;5080463;28;20193;-82
2024/03/25 11:20:43;;;;;;;3.33;2.90;;;19.90;56.40;;;;;;5063185;28;20196;-80
2024/03/25 11:23:13;;;;;;;5.47;2.90;;;19.90;56.10;;;;;;5086479;28;20204;-81
2024/03/25 11:25:41;;;;;;;4.17;2.57;;;19.90;55.60;;;;;;5059341;28;20238;-80
2024/03/25 11:28:09;;;;;;;3.13;2.80;;;19.80;55.60;;;;;;5060020;28;20229;-82
2024/03/25 11:30:38;;;;;;;5.30;3.20;;;19.90;56.00;;;;;;5064107;28;20637;-82
2024/03/25 11:33:04;;;;;;;3.57;2.60;;;19.90;56.10;;;;;;5070517;28;20572;-82
2024/03/25 11:35:37;;;;;;;3.43;2.90;;;20.00;55.10;;;;;;5048184;28;20206;-80
2024/03/25 11:38:03;;;;;;;6.50;3.23;;;20.00;54.90;;;;;;5045753;28;20246;-81
2024/03/25 11:40:30;;;;;;;4.10;2.80;;;20.10;55.70;;;;;;5065305;28;20216;-80
2024/03/25 11:42:56;;;;;;;5.30;2.63;;;20.30;55.30;;;;;;5043304;28;20346;-82
2024/03/25 11:49:17;;;;;;;3.80;2.77;;;20.40;55.00;;;;;;5076171;28;20201;-82
2024/03/25 11:51:46;;;;;;;6.67;3.27;;;20.40;54.00;;;;;;5035984;28;20201;-80
2024/03/25 11:54:13;;;;;;;4.60;3.23;;;20.40;53.30;;;;;;5040763;28;20218;-80
2024/03/25 11:56:41;;;;;;;7.13;3.60;;;20.40;53.90;;;;;;5039410;28;20217;-81
2024/03/25 11:59:08;;;;;;;6.30;3.67;;;20.40;53.70;;;;;;5051207;28;20205;-80
2024/03/25 12:01:34;;;;;;;3.77;3.30;;;20.40;52.80;;;;;;5055452;28;20534;-83
2024/03/25 12:04:12;;;;;;;4.57;3.13;;;20.50;52.80;;;;;;5064411;28;20296;-80
2024/03/25 12:06:39;;;;;;;3.80;3.17;;;20.40;52.60;;;;;;5059867;28;20254;-79
2024/03/25 12:11:50;;;;;;;5.10;3.97;;;20.50;52.10;;;;;;5060428;28;20254;-81
2024/03/25 12:14:16;;;;;;;5.53;4.23;;;20.60;52.30;;;;;;5063008;28;20225;-81
2024/03/25 12:16:42;;;;;;;4.00;3.60;;;20.70;52.60;;;;;;5063260;28;20209;-81
2024/03/25 12:19:09;;;;;;;4.50;3.80;;;20.70;52.00;;;;;;5052164;28;20261;-80
2024/03/25 12:21:37;;;;;;;5.70;4.60;;;20.70;51.50;;;;;;5063043;28;20211;-81
2024/03/25 12:24:04;;;;;;;4.97;4.33;;;20.80;50.50;;;;;;5061363;28;20205;-80
2024/03/25 12:26:31;;;;;;;4.10;3.70;;;20.60;50.50;;;;;;5048180;28;20220;-83
2024/03/25 12:28:58;;;;;;;7.27;3.60;;;20.50;50.10;;;;;;5042999;28;20550;-80
2024/03/25 12:31:24;;;;;;;4.10;3.00;;;20.30;50.60;;;;;;5052045;28;20234;-80
2024/03/25 12:33:53;;;;;;;4.80;2.60;;;20.20;52.10;;;;;;5082532;28;20221;-81
2024/03/25 12:36:22;;;;;;;5.57;2.93;;;20.30;52.50;;;;;;5046199;28;20248;-81
2024/03/25 12:38:56;;;;;;;2.97;2.53;;;20.40;51.80;;;;;;5066028;28;20194;-82
2024/03/25 12:41:23;;;;;;;5.23;2.23;;;20.40;51.70;;;;;;5066245;28;20247;-80
2024/03/25 12:43:51;;;;;;;4.10;1.90;;;20.50;50.80;;;;;;5090191;28;20213;-83
2024/03/25 12:46:17;;;;;;;3.07;2.10;;;20.60;49.50;;;;;;5068475;28;20288;-81
2024/03/25 12:48:44;;;;;;;3.47;2.40;;;20.50;48.60;;;;;;5048806;28;20764;-81
2024/03/25 12:51:14;;;;;;;2.87;2.17;;;20.40;49.20;;;;;;5072755;28;20232;-82
2024/03/25 12:53:40;;;;;;;2.80;2.10;;;20.30;48.40;;;;;;5061432;28;20243;-80
2024/03/25 12:56:07;;;;;;;4.23;2.27;;;20.30;49.00;;;;;;5081105;28;20655;-80
2024/03/25 12:58:34;;;;;;;2.67;2.07;;;20.20;49.30;;;;;;5059025;28;20615;-82
2024/03/25 13:01:01;;;;;;;6.47;2.13;;;20.10;49.00;;;;;;5081682;28;20246;-80
2024/03/25 13:03:29;;;;;;;4.83;2.47;;;19.90;49.20;;;;;;5064768;28;20223;-80
2024/03/25 13:05:57;;;;;;;3.80;2.10;;;19.80;50.30;;;;;;5064665;28;20625;-79
2024/03/25 13:08:23;;;;;;;2.53;1.73;;;19.70;50.90;;;;;;5081049;28;20204;-81
2024/03/25 13:10:49;;;;;;;2.13;1.93;;;19.60;50.80;;;;;;5067129;28;20219;-79
2024/03/25 13:13:16;;;;;;;2.10;1.73;;;19.50;50.70;;;;;;5063055;28;20213;-80